createdAt,value
2022-10-22T00:01:20.469Z,12.16
2022-10-22T00:03:48.742Z,12.21
2022-10-22T00:06:17.023Z,12.26
2022-10-22T00:08:45.012Z,12.30
2022-10-22T00:11:16.087Z,12.32
2022-10-22T00:13:44.764Z,12.33
2022-10-22T00:16:13.951Z,12.32
2022-10-22T00:18:42.482Z,12.34
2022-10-22T00:21:10.866Z,12.34
2022-10-22T00:23:42.624Z,12.38
2022-10-22T00:26:12.034Z,12.41
2022-10-22T00:28:40.123Z,12.45
2022-10-22T00:31:08.453Z,12.50
2022-10-22T00:33:36.570Z,12.52
2022-10-22T00:36:08.729Z,12.54
2022-10-22T00:38:36.887Z,12.57
2022-10-22T00:41:05.032Z,12.57
2022-10-22T00:43:33.542Z,12.56
2022-10-22T00:46:01.717Z,12.57
2022-10-22T00:48:33.487Z,12.57
2022-10-22T00:51:06.575Z,12.56
2022-10-22T00:53:46.200Z,12.54
2022-10-22T00:56:15.007Z,12.50
2022-10-22T00:58:49.378Z,12.44
2022-10-22T01:01:21.713Z,12.42
2022-10-22T01:03:50.377Z,12.40
2022-10-22T01:06:28.798Z,12.40
2022-10-22T01:09:17.365Z,12.38
2022-10-22T01:11:56.903Z,12.38
2022-10-22T01:14:52.495Z,12.33
2022-10-22T01:17:43.534Z,12.31
2022-10-22T01:20:50.904Z,12.30
2022-10-22T01:23:54.411Z,12.30
2022-10-22T01:26:48.522Z,12.32
2022-10-22T01:29:24.755Z,12.31
2022-10-22T01:32:01.837Z,12.31
2022-10-22T01:34:32.056Z,12.38
2022-10-22T01:37:00.581Z,12.39
2022-10-22T01:39:30.958Z,12.37
2022-10-22T01:41:59.132Z,12.39
2022-10-22T01:44:29.091Z,12.38
2022-10-22T01:47:15.896Z,12.35
2022-10-22T01:50:16.494Z,12.33
2022-10-22T01:52:50.402Z,12.31
2022-10-22T01:55:18.376Z,12.30
2022-10-22T01:58:03.306Z,12.30
2022-10-22T02:00:31.757Z,12.28
2022-10-22T02:03:10.144Z,12.27
2022-10-22T02:05:49.365Z,12.23
2022-10-22T02:08:28.900Z,12.23
2022-10-22T02:10:58.926Z,12.22
2022-10-22T02:13:49.136Z,12.21
2022-10-22T02:16:27.735Z,12.20
2022-10-22T02:19:17.209Z,12.20
2022-10-22T02:21:45.896Z,12.19
2022-10-22T02:24:13.947Z,12.16
2022-10-22T02:27:00.267Z,12.15
2022-10-22T02:29:35.194Z,12.14
2022-10-22T02:32:05.909Z,12.13
2022-10-22T02:34:34.098Z,12.09
2022-10-22T02:37:04.387Z,12.06
2022-10-22T02:39:33.629Z,12.06
2022-10-22T02:42:03.237Z,12.08
2022-10-22T02:44:31.510Z,12.10
2022-10-22T02:47:00.348Z,12.13
2022-10-22T02:49:28.632Z,12.15
2022-10-22T02:51:57.281Z,12.16
2022-10-22T02:54:25.554Z,12.17
2022-10-22T02:56:53.722Z,12.21
2022-10-22T02:59:21.781Z,12.27
2022-10-22T03:01:50.370Z,12.31
2022-10-22T03:04:18.636Z,12.33
2022-10-22T03:06:49.018Z,12.34
2022-10-22T03:09:20.156Z,12.36
2022-10-22T03:11:51.258Z,12.37
2022-10-22T03:14:20.206Z,12.39
2022-10-22T03:16:48.950Z,12.43
2022-10-22T03:19:17.429Z,12.45
2022-10-22T03:21:54.096Z,12.45
2022-10-22T03:24:34.356Z,12.43
2022-10-22T03:27:02.834Z,12.43
2022-10-22T03:29:33.331Z,12.45
2022-10-22T03:32:01.432Z,12.48
2022-10-22T03:34:29.596Z,12.49
2022-10-22T03:37:00.492Z,12.51
2022-10-22T03:39:34.650Z,12.49
2022-10-22T03:42:04.563Z,12.45
2022-10-22T03:44:33.771Z,12.47
2022-10-22T03:47:02.855Z,12.53
2022-10-22T03:49:31.138Z,12.54
2022-10-22T03:52:08.839Z,12.57
2022-10-22T03:57:11.570Z,12.63
2022-10-22T03:59:43.189Z,12.64
2022-10-22T04:02:12.503Z,12.63
2022-10-22T04:04:40.773Z,12.63
2022-10-22T04:07:09.249Z,12.62
2022-10-22T04:09:37.462Z,12.60
2022-10-22T04:12:07.987Z,12.60
2022-10-22T04:14:35.955Z,12.59
2022-10-22T04:17:04.131Z,12.61
2022-10-22T04:19:32.273Z,12.60
2022-10-22T04:22:01.050Z,12.61
2022-10-22T04:24:31.511Z,12.60
2022-10-22T04:26:59.559Z,12.60
2022-10-22T04:29:28.636Z,12.61
2022-10-22T04:31:57.962Z,12.56
2022-10-22T04:34:29.694Z,12.53
2022-10-22T04:36:58.067Z,12.52
2022-10-22T04:39:26.567Z,12.48
2022-10-22T04:41:54.637Z,12.47
2022-10-22T04:44:23.209Z,12.44
2022-10-22T04:46:51.595Z,12.44
2022-10-22T04:49:19.960Z,12.42
2022-10-22T04:51:48.148Z,12.39
2022-10-22T04:54:16.235Z,12.38
2022-10-22T04:56:44.392Z,12.38
2022-10-22T04:59:13.290Z,12.37
2022-10-22T05:01:44.580Z,12.37
2022-10-22T05:04:15.978Z,12.36
2022-10-22T05:06:44.589Z,12.35
2022-10-22T05:09:19.368Z,12.34
2022-10-22T05:11:50.330Z,12.33
2022-10-22T05:14:22.788Z,12.30
2022-10-22T05:16:52.112Z,12.31
2022-10-22T05:19:29.696Z,12.30
2022-10-22T05:22:02.792Z,12.30
2022-10-22T05:24:33.362Z,12.29
2022-10-22T05:27:02.011Z,12.29
2022-10-22T05:29:30.178Z,12.30
2022-10-22T05:31:58.410Z,12.30
2022-10-22T05:34:26.630Z,12.31
2022-10-22T05:36:54.699Z,12.32
2022-10-22T05:39:22.873Z,12.32
2022-10-22T05:41:50.914Z,12.36
2022-10-22T05:44:19.016Z,12.41
2022-10-22T05:46:47.321Z,12.48
2022-10-22T05:49:16.694Z,12.55
2022-10-22T05:51:45.187Z,12.64
2022-10-22T05:54:19.290Z,12.71
2022-10-22T05:56:48.093Z,12.82
2022-10-22T05:59:16.451Z,12.85
2022-10-22T06:01:44.961Z,12.90
2022-10-22T06:04:16.659Z,12.94
2022-10-22T06:06:49.440Z,13.02
2022-10-22T06:09:23.395Z,13.11
2022-10-22T06:11:54.665Z,13.19
2022-10-22T06:14:24.838Z,13.25
2022-10-22T06:16:54.182Z,13.31
2022-10-22T06:19:28.074Z,13.36
2022-10-22T06:21:57.341Z,13.40
2022-10-22T06:24:25.731Z,13.44
2022-10-22T06:26:55.082Z,13.49
2022-10-22T06:29:24.597Z,13.56
2022-10-22T06:31:54.234Z,13.58
2022-10-22T06:34:22.817Z,13.59
2022-10-22T06:36:52.117Z,13.62
2022-10-22T06:39:22.034Z,13.66
2022-10-22T06:41:54.297Z,13.67
2022-10-22T06:44:23.189Z,13.69
2022-10-22T06:46:53.229Z,13.72
2022-10-22T06:49:22.783Z,13.73
2022-10-22T06:51:57.194Z,13.70
2022-10-22T06:54:28.030Z,13.74
2022-10-22T06:57:01.247Z,13.77
2022-10-22T06:59:33.153Z,13.79
2022-10-22T07:02:03.109Z,13.80
2022-10-22T07:04:32.239Z,13.83
2022-10-22T07:07:02.195Z,13.87
2022-10-22T07:09:32.092Z,13.92
2022-10-22T07:12:01.591Z,13.96
2022-10-22T07:14:31.091Z,14.01
2022-10-22T07:17:00.474Z,14.07
2022-10-22T07:19:32.356Z,14.13
2022-10-22T07:22:06.247Z,14.16
2022-10-22T07:24:36.743Z,14.20
2022-10-22T07:27:10.972Z,14.22
2022-10-22T07:29:45.192Z,14.30
2022-10-22T07:32:14.468Z,14.35
2022-10-22T07:34:43.916Z,14.39
2022-10-22T07:37:13.072Z,14.46
2022-10-22T07:39:43.597Z,14.53
2022-10-22T07:42:15.546Z,14.58
2022-10-22T07:44:46.179Z,14.62
2022-10-22T07:47:18.537Z,14.65
2022-10-22T07:49:50.212Z,14.64
2022-10-22T07:52:19.502Z,14.64
2022-10-22T07:54:49.741Z,14.66
2022-10-22T07:57:21.002Z,14.67
2022-10-22T07:59:52.358Z,14.67
2022-10-22T08:02:21.527Z,14.65
2022-10-22T08:04:50.515Z,14.64
2022-10-22T08:07:32.485Z,14.62
2022-10-22T08:10:08.410Z,14.62
2022-10-22T08:12:40.271Z,14.62
2022-10-22T08:15:10.786Z,14.63
2022-10-22T08:17:40.740Z,14.65
2022-10-22T08:20:10.361Z,14.67
2022-10-22T08:22:40.073Z,14.69
2022-10-22T08:25:09.157Z,14.72
2022-10-22T08:27:39.695Z,14.76
2022-10-22T08:30:09.241Z,14.76
2022-10-22T08:32:37.881Z,14.82
2022-10-22T08:35:07.405Z,14.85
2022-10-22T08:37:36.906Z,14.90
2022-10-22T08:40:06.671Z,14.92
2022-10-22T08:42:59.539Z,14.97
2022-10-22T08:45:47.912Z,15.00
2022-10-22T08:48:19.867Z,15.02
2022-10-22T08:50:53.478Z,15.04
2022-10-22T08:53:44.417Z,15.06
2022-10-22T08:56:15.659Z,15.11
2022-10-22T08:58:54.025Z,15.15
2022-10-22T09:01:30.653Z,15.17
2022-10-22T09:03:59.220Z,15.18
2022-10-22T09:06:32.234Z,15.18
2022-10-22T09:09:15.323Z,15.19
2022-10-22T09:11:57.820Z,15.21
2022-10-22T09:14:32.231Z,15.20
2022-10-22T09:17:29.063Z,15.24
2022-10-22T09:20:16.229Z,15.26
2022-10-22T09:23:09.237Z,15.28
2022-10-22T09:25:39.391Z,15.28
2022-10-22T09:28:09.763Z,15.29
2022-10-22T09:30:40.083Z,15.29
2022-10-22T09:33:42.074Z,15.29
2022-10-22T09:36:16.808Z,15.33
2022-10-22T09:38:48.803Z,15.32
2022-10-22T09:41:19.569Z,15.39
2022-10-22T09:43:49.117Z,15.43
2022-10-22T09:46:23.157Z,15.45
2022-10-22T09:49:00.732Z,15.46
2022-10-22T09:51:56.474Z,15.48
2022-10-22T09:54:45.607Z,15.53
2022-10-22T09:57:21.774Z,15.61
2022-10-22T09:59:51.672Z,15.67
2022-10-22T10:02:43.685Z,15.72
2022-10-22T10:05:27.867Z,15.77
2022-10-22T10:07:59.214Z,15.80
2022-10-22T10:11:10.696Z,15.82
2022-10-22T10:14:07.454Z,15.79
2022-10-22T10:16:46.103Z,15.75
2022-10-22T10:19:38.076Z,15.73
2022-10-22T10:22:18.353Z,15.74
2022-10-22T10:24:54.785Z,15.72
2022-10-22T10:27:31.680Z,15.76
2022-10-22T10:30:22.982Z,15.77
2022-10-22T10:33:09.619Z,15.81
2022-10-22T10:36:04.625Z,15.86
2022-10-22T10:39:00.272Z,15.93
2022-10-22T10:42:11.125Z,15.91
2022-10-22T10:45:07.361Z,15.92
2022-10-22T10:47:56.727Z,15.87
2022-10-22T10:50:36.476Z,15.88
2022-10-22T10:53:35.875Z,15.89
2022-10-22T10:56:25.661Z,15.92
2022-10-22T10:59:01.166Z,15.92
2022-10-22T11:01:51.520Z,16.00
2022-10-22T11:04:58.393Z,16.12
2022-10-22T11:07:35.211Z,16.22
2022-10-22T11:10:32.309Z,16.30
2022-10-22T11:13:15.634Z,16.37
2022-10-22T11:15:49.852Z,16.42
2022-10-22T11:18:34.719Z,16.41
2022-10-22T11:21:18.202Z,16.53
2022-10-22T11:24:02.444Z,16.58
2022-10-22T11:26:49.110Z,16.69
2022-10-22T11:29:34.193Z,16.75
2022-10-22T11:32:04.099Z,16.84
2022-10-22T11:34:46.700Z,16.87
2022-10-22T11:37:16.792Z,16.91
2022-10-22T11:39:54.130Z,16.93
2022-10-22T11:42:32.221Z,16.89
2022-10-22T11:45:28.982Z,16.94
2022-10-22T11:47:59.694Z,16.93
2022-10-22T11:51:11.913Z,16.92
2022-10-22T11:53:41.199Z,16.91
2022-10-22T11:56:13.481Z,16.89
2022-10-22T11:58:44.311Z,16.89
2022-10-22T12:01:13.016Z,16.92
2022-10-22T12:03:48.333Z,16.92
2022-10-22T12:06:24.065Z,16.90
2022-10-22T12:08:53.470Z,16.89
2022-10-22T12:11:50.050Z,16.86
2022-10-22T12:14:33.464Z,16.83
2022-10-22T12:17:06.063Z,16.78
2022-10-22T12:19:39.908Z,16.66
2022-10-22T12:22:16.017Z,16.61
2022-10-22T12:25:01.953Z,16.55
2022-10-22T12:27:35.403Z,16.51
2022-10-22T12:30:19.343Z,16.46
2022-10-22T12:32:48.032Z,16.45
2022-10-22T12:35:20.507Z,16.45
2022-10-22T12:37:55.169Z,16.43
2022-10-22T12:40:27.089Z,16.41
2022-10-22T12:43:02.056Z,16.38
2022-10-22T12:45:34.359Z,16.30
2022-10-22T12:48:06.693Z,16.27
2022-10-22T12:50:39.979Z,16.21
2022-10-22T12:53:16.436Z,16.15
2022-10-22T12:55:50.484Z,16.12
2022-10-22T12:58:23.164Z,16.07
2022-10-22T13:01:02.448Z,16.03
2022-10-22T13:03:42.508Z,16.01
2022-10-22T13:06:20.142Z,16.01
2022-10-22T13:09:04.600Z,15.99
2022-10-22T13:11:42.462Z,15.97
2022-10-22T13:14:22.303Z,15.92
2022-10-22T13:17:09.831Z,15.98
2022-10-22T13:19:42.219Z,16.01
2022-10-22T13:22:33.232Z,16.03
2022-10-22T13:25:20.959Z,16.05
2022-10-22T13:27:52.276Z,16.07
2022-10-22T13:30:25.780Z,16.11
2022-10-22T13:33:23.026Z,16.12
2022-10-22T13:35:51.329Z,16.13
2022-10-22T13:38:24.949Z,16.14
2022-10-22T13:40:54.794Z,16.17
2022-10-22T13:43:26.160Z,16.14
2022-10-22T13:45:59.286Z,16.12
2022-10-22T13:48:32.984Z,16.12
2022-10-22T13:51:01.269Z,16.10
2022-10-22T13:53:31.212Z,16.10
2022-10-22T13:55:59.558Z,16.07
2022-10-22T13:58:28.965Z,16.05
2022-10-22T14:01:00.664Z,16.01
2022-10-22T14:03:35.283Z,15.96
2022-10-22T14:06:12.813Z,15.90
2022-10-22T14:08:42.448Z,15.86
2022-10-22T14:11:13.597Z,15.82
2022-10-22T14:13:42.392Z,15.79
2022-10-22T14:16:19.021Z,15.77
2022-10-22T14:18:48.445Z,15.75
2022-10-22T14:21:19.933Z,15.71
2022-10-22T14:23:49.204Z,15.69
2022-10-22T14:26:28.333Z,15.67
2022-10-22T14:29:14.392Z,15.67
2022-10-22T14:31:46.256Z,15.67
2022-10-22T14:34:16.767Z,15.66
2022-10-22T14:36:46.273Z,15.66
2022-10-22T14:39:15.430Z,15.67
2022-10-22T14:41:43.793Z,15.70
2022-10-22T14:44:14.646Z,15.71
2022-10-22T14:46:44.864Z,15.70
2022-10-22T14:49:14.675Z,15.68
2022-10-22T14:51:43.772Z,15.68
2022-10-22T14:54:14.312Z,15.67
2022-10-22T14:56:42.678Z,15.67
2022-10-22T14:59:11.055Z,15.64
2022-10-22T15:01:40.792Z,15.62
2022-10-22T15:04:10.079Z,15.60
2022-10-22T15:06:42.085Z,15.60
2022-10-22T15:09:11.702Z,15.58
2022-10-22T15:11:43.176Z,15.58
2022-10-22T15:14:11.554Z,15.55
2022-10-22T15:16:40.865Z,15.55
2022-10-22T15:19:11.693Z,15.55
2022-10-22T15:24:15.420Z,15.54
2022-10-22T15:26:45.781Z,15.51
2022-10-22T15:29:15.148Z,15.46
2022-10-22T15:31:52.180Z,15.42
2022-10-22T15:34:30.140Z,15.39
2022-10-22T15:37:02.209Z,15.37
2022-10-22T15:39:35.993Z,15.35
2022-10-22T15:42:11.942Z,15.31
2022-10-22T15:44:42.271Z,15.30
2022-10-22T15:47:11.897Z,15.31
2022-10-22T15:49:45.212Z,15.29
2022-10-22T15:52:18.979Z,15.29
2022-10-22T15:54:48.061Z,15.28
2022-10-22T15:57:16.567Z,15.26
2022-10-22T15:59:48.277Z,15.24
2022-10-22T16:02:19.594Z,15.23
2022-10-22T16:04:48.350Z,15.23
2022-10-22T16:07:21.048Z,15.22
2022-10-22T16:09:58.890Z,15.22
2022-10-22T16:12:28.572Z,15.22
2022-10-22T16:14:57.131Z,15.22
2022-10-22T16:17:25.294Z,15.22
2022-10-22T16:22:56.491Z,15.26
2022-10-22T16:25:30.633Z,15.26
2022-10-22T16:28:05.262Z,15.22
2022-10-22T16:30:42.900Z,15.22
2022-10-22T16:33:11.901Z,15.21
2022-10-22T16:35:44.304Z,15.21
2022-10-22T16:38:14.822Z,15.22
2022-10-22T16:40:44.098Z,15.24
2022-10-22T16:43:12.814Z,15.26
2022-10-22T16:45:50.584Z,15.29
2022-10-22T16:48:21.175Z,15.29
2022-10-22T16:50:50.524Z,15.27
2022-10-22T16:53:19.615Z,15.27
2022-10-22T16:55:49.435Z,15.25
2022-10-22T16:58:18.423Z,15.22
2022-10-22T17:00:47.241Z,15.19
2022-10-22T17:03:15.589Z,15.15
2022-10-22T17:05:44.068Z,15.11
2022-10-22T17:08:14.688Z,15.05
2022-10-22T17:10:43.394Z,15.03
2022-10-22T17:13:12.902Z,14.93
2022-10-22T17:15:41.795Z,14.92
2022-10-22T17:18:11.489Z,14.94
2022-10-22T17:20:44.258Z,14.94
2022-10-22T17:23:12.774Z,14.94
2022-10-22T17:25:44.515Z,14.96
2022-10-22T17:28:13.720Z,14.99
2022-10-22T17:30:42.399Z,14.99
2022-10-22T17:33:12.317Z,15.01
2022-10-22T17:35:43.188Z,15.02
2022-10-22T17:38:13.377Z,15.04
2022-10-22T17:40:42.984Z,15.03
2022-10-22T17:43:12.724Z,15.04
2022-10-22T17:45:42.639Z,15.04
2022-10-22T17:48:12.118Z,15.05
2022-10-22T17:50:48.201Z,15.06
2022-10-22T17:53:20.028Z,15.05
2022-10-22T17:55:49.727Z,15.04
2022-10-22T17:58:18.421Z,15.03
2022-10-22T18:00:47.425Z,15.01
2022-10-22T18:03:16.710Z,14.97
2022-10-22T18:05:45.514Z,14.93
2022-10-22T18:08:14.628Z,14.90
2022-10-22T18:10:45.540Z,14.90
2022-10-22T18:13:19.428Z,14.90
2022-10-22T18:15:56.613Z,14.92
2022-10-22T18:18:26.337Z,14.93
2022-10-22T18:20:59.174Z,14.95
2022-10-22T18:23:28.522Z,14.95
2022-10-22T18:25:58.256Z,14.95
2022-10-22T18:28:27.546Z,14.96
2022-10-22T18:31:07.384Z,14.97
2022-10-22T18:33:48.070Z,14.97
2022-10-22T18:36:20.092Z,14.96
2022-10-22T18:38:59.443Z,14.94
2022-10-22T18:41:49.004Z,14.93
2022-10-22T18:44:29.143Z,14.90
2022-10-22T18:47:05.630Z,14.88
2022-10-22T18:49:40.132Z,14.87
2022-10-22T18:52:10.919Z,14.86
2022-10-22T18:54:43.698Z,14.84
2022-10-22T18:57:16.412Z,14.83
2022-10-22T18:59:49.892Z,14.80
2022-10-22T19:02:32.423Z,14.78
2022-10-22T19:05:11.410Z,14.78
2022-10-22T19:07:44.470Z,14.77
2022-10-22T19:10:27.035Z,14.74
2022-10-22T19:12:59.195Z,14.73
2022-10-22T19:15:41.000Z,14.73
2022-10-22T19:18:17.519Z,14.73
2022-10-22T19:20:59.064Z,14.73
2022-10-22T19:23:31.619Z,14.74
2022-10-22T19:26:12.859Z,14.76
2022-10-22T19:28:44.247Z,14.79
2022-10-22T19:31:20.151Z,14.83
2022-10-22T19:34:00.384Z,14.85
2022-10-22T19:36:33.522Z,14.85
2022-10-22T19:39:09.168Z,14.83
2022-10-22T19:41:45.148Z,14.79
2022-10-22T19:44:15.665Z,14.75
2022-10-22T19:46:44.167Z,14.71
2022-10-22T19:49:18.964Z,14.69
2022-10-22T19:51:51.046Z,14.69
2022-10-22T19:54:20.693Z,14.68
2022-10-22T19:56:52.302Z,14.68
2022-10-22T19:59:29.912Z,14.68
2022-10-22T20:02:03.989Z,14.70
2022-10-22T20:04:34.067Z,14.71
2022-10-22T20:07:06.513Z,14.71
2022-10-22T20:09:39.816Z,14.70
2022-10-22T20:12:17.119Z,14.71
2022-10-22T20:14:50.267Z,14.71
2022-10-22T20:17:21.876Z,14.72
2022-10-22T20:19:56.673Z,14.74
2022-10-22T20:22:33.353Z,14.75
2022-10-22T20:25:02.746Z,14.77
2022-10-22T20:27:33.354Z,14.78
2022-10-22T20:30:03.571Z,14.78
2022-10-22T20:32:33.545Z,14.73
2022-10-22T20:35:02.667Z,14.75
2022-10-22T20:37:31.194Z,14.75
2022-10-22T20:40:00.276Z,14.75
2022-10-22T20:42:28.972Z,14.73
2022-10-22T20:44:57.981Z,14.74
2022-10-22T20:47:39.141Z,14.75
2022-10-22T20:50:21.647Z,14.74
2022-10-22T20:52:50.039Z,14.74
2022-10-22T20:55:18.627Z,14.72
2022-10-22T20:57:48.538Z,14.71
2022-10-22T21:00:22.371Z,14.69
2022-10-22T21:02:59.159Z,14.61
2022-10-22T21:05:32.667Z,14.51
2022-10-22T21:08:08.837Z,14.43
2022-10-22T21:10:53.607Z,14.35
2022-10-22T21:13:28.740Z,14.29
2022-10-22T21:16:09.809Z,14.27
2022-10-22T21:18:40.696Z,14.26
2022-10-22T21:21:12.757Z,14.25
2022-10-22T21:23:41.841Z,14.23
2022-10-22T21:26:11.739Z,14.21
2022-10-22T21:28:41.796Z,14.16
2022-10-22T21:31:11.400Z,14.09
2022-10-22T21:33:41.552Z,14.04
2022-10-22T21:36:10.392Z,14.02
2022-10-22T21:38:38.782Z,13.99
2022-10-22T21:41:10.942Z,13.95
2022-10-22T21:43:40.968Z,13.93
2022-10-22T21:46:11.976Z,13.92
2022-10-22T21:48:42.690Z,13.92
2022-10-22T21:51:14.699Z,13.88
2022-10-22T21:53:43.616Z,13.87
2022-10-22T21:56:32.375Z,13.86
2022-10-22T21:59:16.022Z,13.82
2022-10-22T22:01:55.141Z,13.78
2022-10-22T22:04:41.734Z,13.73
2022-10-22T22:07:21.439Z,13.68
2022-10-22T22:09:57.734Z,13.63
2022-10-22T22:12:36.555Z,13.59
2022-10-22T22:15:16.147Z,13.56
2022-10-22T22:17:51.685Z,13.53
2022-10-22T22:20:31.814Z,13.49
2022-10-22T22:23:10.131Z,13.44
2022-10-22T22:25:40.020Z,13.42
2022-10-22T22:28:08.289Z,13.42
2022-10-22T22:30:36.785Z,13.37
2022-10-22T22:33:04.945Z,13.31
2022-10-22T22:35:37.140Z,13.29
2022-10-22T22:38:05.729Z,13.25
2022-10-22T22:40:34.028Z,13.21
2022-10-22T22:43:02.357Z,13.15
2022-10-22T22:45:33.629Z,13.08
2022-10-22T22:48:02.909Z,13.01
2022-10-22T22:50:31.183Z,12.93
2022-10-22T22:52:59.358Z,12.86
2022-10-22T22:55:27.745Z,12.79
2022-10-22T22:57:57.090Z,12.73
2022-10-22T23:00:25.735Z,12.64
2022-10-22T23:02:55.827Z,12.55
2022-10-22T23:05:24.014Z,12.52
2022-10-22T23:07:52.488Z,12.53
2022-10-22T23:10:20.667Z,12.56
2022-10-22T23:12:49.563Z,12.59
2022-10-22T23:15:17.754Z,12.62
2022-10-22T23:17:45.741Z,12.62
2022-10-22T23:20:13.977Z,12.63
2022-10-22T23:22:42.217Z,12.68
2022-10-22T23:25:10.640Z,12.70
2022-10-22T23:27:38.863Z,12.73
2022-10-22T23:30:07.767Z,12.76
2022-10-22T23:32:37.338Z,12.78
2022-10-22T23:35:06.194Z,12.81
2022-10-22T23:37:34.387Z,12.84
2022-10-22T23:40:02.454Z,12.85
2022-10-22T23:42:30.564Z,12.86
2022-10-22T23:44:58.686Z,12.85
2022-10-22T23:47:26.969Z,12.83
2022-10-22T23:49:55.040Z,12.82
2022-10-22T23:52:23.211Z,12.82
2022-10-22T23:54:51.213Z,12.81
2022-10-22T23:57:19.348Z,12.81
2022-10-22T23:59:47.323Z,12.79
